Latest Weather Observations for Mount Ginini

IDN60801

Issued at 3:32 pm EST Monday 27 April 2015 (issued every 30 minutes, with the page automatically refreshed every 10 minutes)

About weather observations | Map of weather stations | Latest weather observations for NSW | Other Formats
Station Details ID: 070349 Name: MOUNT GININI AWS Lat: -35.53 Lon: 148.77 Height: 1760.0 m
Data from the previous 72 hours. | See also: Recent months at Mount Ginini
Date/Time
EST
Temp
°C
App
Temp
°C
Dew
Point
Rel
Hum
%
Delta-T
°C
Wind Press
QNH
hPa
Press
MSL
hPa
Rain
since 9 am
mm
Dir
 
Spd
km/h
Gust
km/h
Spd
kts
Gust
kts
27/03:30pm 6.5 4.4 3.7 82 1.3 WNW 4 13 2 7 - - 0.0
27/03:00pm 7.9 5.2 3.6 74 2.1 WNW 7 15 4 8 - - 0.0
27/02:30pm 7.5 4.5 2.2 69 2.4 WNW 7 17 4 9 - - 0.0
27/02:00pm 7.1 4.0 -0.1 60 3.1 W 6 13 3 7 - - 0.0
27/01:30pm 7.0 3.7 -1.2 56 3.5 W 6 11 3 6 - - 0.0
27/01:00pm 6.6 3.1 -1.1 58 3.3 SW 7 17 4 9 - - 0.0
27/12:30pm 6.3 3.1 1.0 69 2.4 WSW 7 13 4 7 - - 0.0
27/12:00pm 5.6 2.4 1.0 72 2.0 WSW 7 15 4 8 - - 0.0
27/11:30am 4.8 1.8 0.6 74 1.8 SSW 6 11 3 6 - - 0.0
27/11:00am 5.5 3.4 1.4 75 1.8 S 2 6 1 3 - - 0.0
27/10:30am 4.6 1.7 -1.0 67 2.3 SE 4 9 2 5 - - 0.0
27/10:00am 4.5 1.1 -2.4 61 2.8 SE 6 15 3 8 - - 0.0
27/09:30am 3.6 -0.1 -2.6 64 2.5 SSE 7 17 4 9 - - 0.0
27/09:00am 1.7 -2.3 -2.1 76 1.5 S 9 15 5 8 - - 0.0
27/08:30am 0.6 -2.9 -1.3 87 0.8 S 7 17 4 9 - - 0.0
27/08:00am 0.1 -5.8 -2.1 85 0.9 S 19 30 10 16 - - 0.0
27/07:30am -0.4 -6.4 -1.2 94 0.3 S 20 28 11 15 - - 0.0
27/07:00am -0.7 -6.2 -2.3 89 0.6 S 17 26 9 14 - - 0.0
27/06:30am -1.0 -6.4 -1.7 95 0.2 S 17 24 9 13 - - 0.0
27/06:00am -1.0 -6.1 -1.6 96 0.2 SSE 15 26 8 14 - - 0.0
27/05:30am -0.7 -6.1 -1.1 97 0.1 SSE 17 26 9 14 - - 0.0
27/05:00am -1.1 -7.1 -1.4 98 0.1 S 20 30 11 16 - - 0.0
27/04:30am -1.4 -7.8 -1.4 100 0.0 SSW 22 32 12 17 - - 0.0
27/04:00am -1.1 -6.8 -1.1 100 0.0 SSW 19 30 10 16 - - 0.0
27/03:30am -0.6 -6.3 -0.6 100 0.0 SW 19 28 10 15 - - 0.0
27/03:00am -0.3 -6.1 -0.3 100 0.0 SW 20 32 11 17 - - 0.0
27/02:30am -0.2 -6.0 -0.3 99 0.0 SW 20 30 11 16 - - 0.0
27/02:00am -0.1 -5.9 -0.2 99 0.0 SW 20 35 11 19 - - 0.0
27/01:30am 0.2 -5.6 0.2 100 0.0 SW 20 30 11 16 - - 0.0
27/01:00am 0.9 -4.6 0.9 100 0.0 SW 19 33 10 18 - - 0.0
27/12:30am 1.4 -3.6 1.4 100 0.0 SW 17 30 9 16 - - 0.0
27/12:00am 1.6 -3.4 1.6 100 0.0 SW 17 30 9 16 - - 0.0
 
Date/Time
EST
Temp
°C
App
Temp
°C
Dew
Point
Rel
Hum
%
Delta-T
°C
Wind Press
QNH
hPa
Press
MSL
hPa
Rain
since 9 am
mm
Dir
 
Spd
km/h
Gust
km/h
Spd
kts
Gust
kts
26/11:30pm 2.0 -2.9 2.0 100 0.0 SW 17 26 9 14 - - 0.0
26/11:00pm 2.0 -2.1 2.0 100 0.0 SW 13 22 7 12 - - 0.0
26/10:30pm 2.5 -1.2 2.5 100 0.0 SW 11 24 6 13 - - 0.0
26/10:00pm 2.5 -1.9 2.5 100 0.0 SW 15 26 8 14 - - 0.0
26/09:30pm 2.6 -2.2 2.6 100 0.0 SW 17 30 9 16 - - 0.0
26/09:00pm 2.4 -2.4 2.4 100 0.0 SW 17 26 9 14 - - 0.0
26/08:30pm 2.6 -2.6 2.6 100 0.0 SW 19 30 10 16 - - 0.0
26/08:00pm 2.2 -3.2 2.2 100 0.0 SW 20 32 11 17 - - 0.0
26/07:30pm 2.4 -3.4 2.4 100 0.0 SW 22 37 12 20 - - 0.0
26/07:00pm 2.6 -2.8 2.6 100 0.0 SW 20 32 11 17 - - 0.0
26/06:30pm 2.4 -2.8 2.4 100 0.0 SW 19 28 10 15 - - 0.0
26/06:00pm 3.1 -1.2 3.1 100 0.0 SW 15 26 8 14 - - 0.0
26/05:30pm 3.1 -2.2 3.0 99 0.0 SW 20 33 11 18 - - 0.0
26/05:00pm 3.8 -1.4 3.8 100 0.0 SW 20 35 11 19 - - 0.0
26/04:30pm 4.0 -0.9 4.0 100 0.0 WSW 19 37 10 20 - - 0.0
26/04:00pm 4.3 -0.2 4.3 100 0.0 SW 17 35 9 19 - - 0.0
26/03:30pm 4.4 -0.1 4.4 100 0.0 SW 17 32 9 17 - - 0.0
26/03:00pm 4.5 0.4 4.5 100 0.0 SW 15 24 8 13 - - 0.0
26/02:30pm 5.0 1.4 5.0 100 0.0 WSW 13 28 7 15 - - 0.0
26/02:00pm 5.7 3.0 5.4 98 0.1 SW 9 19 5 10 - - 0.0
26/01:30pm 6.7 3.0 6.1 96 0.3 SSW 15 26 8 14 - - 0.0
26/01:00pm 6.7 3.0 6.1 96 0.3 SSW 15 26 8 14 - - 0.0
26/12:30pm 7.5 3.2 6.9 96 0.3 SSW 19 33 10 18 - - 0.0
26/12:00pm 6.4 1.9 6.0 97 0.2 S 19 32 10 17 - - 0.0
26/11:30am 6.3 1.8 6.0 98 0.1 S 19 35 10 19 - - 0.0
26/11:00am 5.0 0.6 4.7 98 0.1 SSW 17 32 9 17 - - 0.0
26/10:30am 5.6 0.9 5.3 98 0.1 S 19 37 10 20 - - 0.0
26/10:00am 5.8 -0.1 5.8 100 0.0 S 26 43 14 23 - - 0.0
26/09:45am 4.9 -1.6 4.9 100 0.0 S 28 50 15 27 - - 0.0
26/09:30am 4.9 -1.2 4.9 100 0.0 S 26 41 14 22 - - 0.0
26/09:00am 4.0 -1.1 4.0 100 0.0 S 20 33 11 18 - - 3.0
26/08:30am 3.6 -3.1 3.6 100 0.0 S 28 43 15 23 - - 3.0
26/08:00am 3.7 -3.4 3.7 100 0.0 S 30 52 16 28 - - 3.0
26/07:45am 2.8 -4.1 2.8 100 0.0 S 28 50 15 27 - - 3.0
26/07:30am 2.2 -4.4 2.2 100 0.0 S 26 48 14 26 - - 3.0
26/07:09am 1.9 -5.1 1.9 100 0.0 S 28 48 15 26 - - 3.0
26/07:00am 1.8 -5.6 1.8 100 0.0 SSW 30 46 16 25 - - 3.0
26/06:38am 1.7 -5.3 1.7 100 0.0 SSW 28 46 15 25 - - 3.0
26/06:30am 1.6 -5.5 1.6 100 0.0 SSW 28 43 15 23 - - 3.0
26/06:00am 1.8 -4.1 1.8 100 0.0 SSW 22 37 12 20 - - 3.0
26/05:30am 1.9 -1.9 1.9 100 0.0 SSW 11 24 6 13 - - 3.0
26/05:00am 1.9 -3.0 1.9 100 0.0 S 17 26 9 14 - - 3.0
26/04:30am 1.9 -3.4 1.9 100 0.0 SSW 19 28 10 15 - - 3.0
26/04:00am 1.8 -3.1 1.8 100 0.0 S 17 24 9 13 - - 3.0
26/03:30am 1.1 -2.8 1.1 100 0.0 S 11 24 6 13 - - 3.0
26/03:00am 1.4 -3.2 1.4 100 0.0 S 15 22 8 12 - - 3.0
26/02:30am 1.0 -3.7 0.9 99 0.0 SSW 15 20 8 11 - - 3.0
26/02:00am 1.4 -2.5 1.1 98 0.1 S 11 17 6 9 - - 3.0
26/01:30am 1.3 -3.0 1.0 98 0.1 SSE 13 19 7 10 - - 3.0
26/01:00am 2.5 -3.0 2.1 97 0.2 S 20 33 11 18 - - 3.0
26/12:30am 2.1 -3.4 1.7 97 0.2 SSE 20 30 11 16 - - 3.0
26/12:00am 2.6 -3.2 2.2 97 0.2 S 22 33 12 18 - - 3.0
 
Date/Time
EST
Temp
°C
App
Temp
°C
Dew
Point
Rel
Hum
%
Delta-T
°C
Wind Press
QNH
hPa
Press
MSL
hPa
Rain
since 9 am
mm
Dir
 
Spd
km/h
Gust
km/h
Spd
kts
Gust
kts
25/11:30pm 2.2 -3.1 1.9 98 0.1 S 19 30 10 16 - - 3.0
25/11:00pm 2.2 -2.0 1.9 98 0.1 SSE 13 20 7 11 - - 3.0
25/10:30pm 2.6 -0.7 2.2 97 0.2 SSE 9 19 5 10 - - 3.0
25/10:00pm 2.5 -2.0 2.1 97 0.2 S 15 22 8 12 - - 3.0
25/09:30pm 2.3 -2.6 1.9 97 0.2 SSW 17 22 9 12 - - 3.0
25/09:00pm 2.4 -2.1 2.0 97 0.2 SSW 15 20 8 11 - - 3.0
25/08:30pm 2.9 -0.4 2.5 97 0.2 SW 9 15 5 8 - - 3.0
25/08:00pm 2.4 -2.5 2.1 98 0.1 SSW 17 22 9 12 - - 3.0
25/07:30pm 1.9 -1.5 1.6 98 0.1 SW 9 15 5 8 - - 3.0
25/07:00pm 2.5 -0.8 2.4 99 0.0 WSW 9 15 5 8 - - 3.0
25/06:30pm 2.3 -2.2 2.3 100 0.0 SSW 15 22 8 12 - - 3.0
25/06:00pm 2.0 -3.5 2.0 100 0.0 SSW 20 33 11 18 - - 3.0
25/05:30pm 2.4 -2.8 2.4 100 0.0 SSW 19 26 10 14 - - 3.0
25/05:00pm 3.4 -0.5 3.3 99 0.0 SW 13 22 7 12 - - 3.0
25/04:30pm 4.2 1.2 3.9 98 0.1 WNW 9 20 5 11 - - 3.0
25/04:00pm 4.8 1.2 4.8 100 0.0 W 13 24 7 13 - - 3.0
25/03:30pm 3.4 0.3 3.4 100 0.0 WNW 9 15 5 8 - - 3.0
25/03:00pm 2.9 -0.7 2.9 100 0.0 NW 11 24 6 13 - - 2.6
25/02:30pm 2.7 -1.3 2.7 100 0.0 NNW 13 28 7 15 - - 2.2
25/02:00pm 2.8 0.1 2.8 100 0.0 NW 6 11 3 6 - - 1.6
25/01:30pm 2.6 -0.3 2.6 100 0.0 WSW 7 24 4 13 - - 1.4
25/01:00pm 2.5 -2.9 2.5 100 0.0 W 20 41 11 22 - - 1.0
25/12:46pm 4.8 1.2 4.8 100 0.0 NNW 13 41 7 22 - - 0.0
25/12:30pm 5.6 3.3 5.6 100 0.0 N 7 15 4 8 - - 0.0
25/12:00pm 6.4 3.5 6.4 100 0.0 NNE 11 24 6 13 - - 0.0
25/11:30am 5.7 1.9 5.7 100 0.0 NNE 15 30 8 16 - - 0.0
25/11:00am 5.4 2.7 5.4 100 0.0 NNE 9 20 5 11 - - 0.0
25/10:30am 6.7 3.8 6.7 100 0.0 N 11 22 6 12 - - 0.0
25/10:00am 6.2 3.6 6.2 100 0.0 N 9 20 5 11 - - 0.0
25/09:30am 7.8 6.0 7.8 100 0.0 N 7 15 4 8 - - 0.0
25/09:00am 4.8 1.9 4.8 100 0.0 NW 9 15 5 8 - - 4.8
25/08:30am 4.2 1.2 4.2 100 0.0 WNW 9 13 5 7 - - 4.8
25/08:00am 2.2 -1.9 2.2 100 0.0 WNW 13 32 7 17 - - 3.2
25/07:30am 4.1 1.5 4.1 100 0.0 NNW 7 13 4 7 - - 0.8
25/07:00am 2.7 -0.6 2.7 100 0.0 NW 9 15 5 8 - - 0.8
25/06:30am 2.9 0.0 2.8 99 0.0 W 7 11 4 6 - - 0.8
25/06:00am 2.8 -0.8 2.7 99 0.0 W 11 17 6 9 - - 0.8
25/05:30am 2.5 -1.6 2.4 99 0.0 WSW 13 19 7 10 - - 0.8
25/05:00am 1.9 -1.9 1.8 99 0.0 WSW 11 19 6 10 - - 0.8
25/04:30am 2.3 -1.8 2.2 99 0.0 SW 13 22 7 12 - - 0.8
25/04:00am 2.8 -1.2 2.7 99 0.0 WSW 13 20 7 11 - - 0.8
25/03:30am 3.2 -1.1 3.1 99 0.0 WSW 15 24 8 13 - - 0.8
25/03:00am 2.8 -2.0 2.7 99 0.0 WSW 17 26 9 14 - - 0.8
25/02:30am 3.1 -1.2 3.0 99 0.0 W 15 24 8 13 - - 0.8
25/02:00am 3.0 -1.4 2.9 99 0.0 WSW 15 24 8 13 - - 0.8
25/01:30am 3.2 -1.1 3.1 99 0.0 W 15 30 8 16 - - 0.8
25/01:00am 3.9 -0.7 3.8 99 0.0 W 17 33 9 18 - - 0.8
25/12:30am 4.1 -0.1 4.0 99 0.0 W 15 28 8 15 - - 0.8
25/12:00am 4.4 -0.1 4.3 99 0.0 W 17 32 9 17 - - 0.8
 
Date/Time
EST
Temp
°C
App
Temp
°C
Dew
Point
Rel
Hum
%
Delta-T
°C
Wind Press
QNH
hPa
Press
MSL
hPa
Rain
since 9 am
mm
Dir
 
Spd
km/h
Gust
km/h
Spd
kts
Gust
kts
24/11:30pm 4.6 -0.2 4.5 99 0.0 W 19 33 10 18 - - 0.8
24/11:00pm 4.7 -0.1 4.6 99 0.0 WNW 19 37 10 20 - - 0.8
24/10:30pm 4.8 -0.2 4.7 99 0.0 W 20 37 11 20 - - 0.8
24/10:00pm 4.9 0.5 4.8 99 0.0 W 17 33 9 18 - - 0.8
24/09:30pm 4.9 0.1 4.8 99 0.0 W 19 39 10 21 - - 0.8
24/09:00pm 4.9 -0.1 4.8 99 0.0 W 20 39 11 21 - - 0.8
24/08:30pm 4.9 -0.1 4.8 99 0.0 W 20 41 11 22 - - 0.8
24/08:00pm 5.1 0.4 5.0 99 0.0 W 19 33 10 18 - - 0.8
24/07:30pm 5.3 0.4 5.2 99 0.0 W 20 41 11 22 - - 0.8
24/07:00pm 5.4 1.1 5.3 99 0.0 W 17 30 9 16 - - 0.8
24/06:30pm 5.3 0.0 5.2 99 0.0 W 22 43 12 23 - - 0.8
24/06:00pm 5.6 0.4 5.5 99 0.0 W 22 43 12 23 - - 0.8
24/05:30pm 5.7 0.9 5.6 99 0.0 W 20 39 11 21 - - 0.8
24/05:00pm 5.7 0.9 5.6 99 0.0 W 20 37 11 20 - - 0.8
24/04:30pm 5.8 1.0 5.7 99 0.0 W 20 39 11 21 - - 0.8
24/04:00pm 5.8 1.2 5.7 99 0.0 W 19 35 10 19 - - 0.8

Other Formats:

Comma delimited format used in spreadsheet applications
http://www.bom.gov.au/fwo/IDN60801/IDN60801.95925.axf

JavaScript Object Notation format (JSON) in row-major order
http://www.bom.gov.au/fwo/IDN60801/IDN60801.95925.json